sensor_id;sensor_type;location;lat;lon;timestamp;temperature;humidity
31133;DHT22;17779;50.942;4.026;2023-02-28T00:00:21;2.20;99.90
31133;DHT22;17779;50.942;4.026;2023-02-28T00:02:47;2.20;99.90
31133;DHT22;17779;50.942;4.026;2023-02-28T00:05:14;2.20;99.90
31133;DHT22;17779;50.942;4.026;2023-02-28T00:07:40;2.10;99.90
31133;DHT22;17779;50.942;4.026;2023-02-28T00:10:09;2.00;99.90
31133;DHT22;17779;50.942;4.026;2023-02-28T00:12:36;2.00;99.90
31133;DHT22;17779;50.942;4.026;2023-02-28T00:15:05;2.00;99.90
31133;DHT22;17779;50.942;4.026;2023-02-28T00:17:31;2.00;99.90
31133;DHT22;17779;50.942;4.026;2023-02-28T00:19:56;1.90;99.90
31133;DHT22;17779;50.942;4.026;2023-02-28T00:22:27;1.90;99.90
31133;DHT22;17779;50.942;4.026;2023-02-28T00:24:52;2.00;99.90
31133;DHT22;17779;50.942;4.026;2023-02-28T00:27:18;2.10;99.90
31133;DHT22;17779;50.942;4.026;2023-02-28T00:29:45;2.10;99.90
31133;DHT22;17779;50.942;4.026;2023-02-28T00:32:11;1.90;99.90
31133;DHT22;17779;50.942;4.026;2023-02-28T00:34:37;1.80;99.90
31133;DHT22;17779;50.942;4.026;2023-02-28T00:37:06;1.90;99.90
31133;DHT22;17779;50.942;4.026;2023-02-28T00:39:34;2.00;99.90
31133;DHT22;17779;50.942;4.026;2023-02-28T00:42:00;1.90;99.90
31133;DHT22;17779;50.942;4.026;2023-02-28T00:44:26;1.80;99.90
31133;DHT22;17779;50.942;4.026;2023-02-28T00:46:51;1.80;99.90
31133;DHT22;17779;50.942;4.026;2023-02-28T00:49:19;1.70;99.90
31133;DHT22;17779;50.942;4.026;2023-02-28T00:51:46;1.70;99.90
31133;DHT22;17779;50.942;4.026;2023-02-28T00:54:11;1.80;99.90
31133;DHT22;17779;50.942;4.026;2023-02-28T00:56:37;1.80;99.90
31133;DHT22;17779;50.942;4.026;2023-02-28T00:59:03;1.90;99.90
31133;DHT22;17779;50.942;4.026;2023-02-28T01:01:29;1.80;99.90
31133;DHT22;17779;50.942;4.026;2023-02-28T01:03:55;1.70;99.90
31133;DHT22;17779;50.942;4.026;2023-02-28T01:06:21;1.60;99.90
31133;DHT22;17779;50.942;4.026;2023-02-28T01:08:46;1.60;99.90
31133;DHT22;17779;50.942;4.026;2023-02-28T01:11:13;1.60;99.90
31133;DHT22;17779;50.942;4.026;2023-02-28T01:13:40;1.60;99.90
31133;DHT22;17779;50.942;4.026;2023-02-28T01:16:06;1.70;99.90
31133;DHT22;17779;50.942;4.026;2023-02-28T01:18:32;1.60;99.90
31133;DHT22;17779;50.942;4.026;2023-02-28T01:20:58;1.60;99.90
31133;DHT22;17779;50.942;4.026;2023-02-28T01:23:28;1.50;99.90
31133;DHT22;17779;50.942;4.026;2023-02-28T01:25:53;1.60;99.90
31133;DHT22;17779;50.942;4.026;2023-02-28T01:28:19;1.40;99.90
31133;DHT22;17779;50.942;4.026;2023-02-28T01:30:49;1.50;99.90
31133;DHT22;17779;50.942;4.026;2023-02-28T01:33:15;1.50;99.90
31133;DHT22;17779;50.942;4.026;2023-02-28T01:35:41;1.60;99.90
31133;DHT22;17779;50.942;4.026;2023-02-28T01:38:07;1.60;99.90
31133;DHT22;17779;50.942;4.026;2023-02-28T01:40:32;1.60;99.90
31133;DHT22;17779;50.942;4.026;2023-02-28T01:42:58;1.50;99.90
31133;DHT22;17779;50.942;4.026;2023-02-28T01:45:28;1.70;99.90
31133;DHT22;17779;50.942;4.026;2023-02-28T01:47:56;1.80;99.90
31133;DHT22;17779;50.942;4.026;2023-02-28T01:50:24;1.80;99.90
31133;DHT22;17779;50.942;4.026;2023-02-28T01:52:51;1.80;99.90
31133;DHT22;17779;50.942;4.026;2023-02-28T01:55:18;1.60;99.90
31133;DHT22;17779;50.942;4.026;2023-02-28T01:57:52;1.60;99.90
31133;DHT22;17779;50.942;4.026;2023-02-28T02:00:20;1.70;99.90
31133;DHT22;17779;50.942;4.026;2023-02-28T02:02:47;1.70;99.90
31133;DHT22;17779;50.942;4.026;2023-02-28T02:05:24;1.60;99.90
31133;DHT22;17779;50.942;4.026;2023-02-28T02:07:51;1.30;99.90
31133;DHT22;17779;50.942;4.026;2023-02-28T02:10:19;1.20;99.90
31133;DHT22;17779;50.942;4.026;2023-02-28T02:15:32;1.20;99.90
31133;DHT22;17779;50.942;4.026;2023-02-28T02:21:14;1.10;99.90
31133;DHT22;17779;50.942;4.026;2023-02-28T02:36:48;1.30;99.90
31133;DHT22;17779;50.942;4.026;2023-02-28T02:39:19;1.30;99.90
31133;DHT22;17779;50.942;4.026;2023-02-28T02:41:47;1.30;99.90
31133;DHT22;17779;50.942;4.026;2023-02-28T02:44:24;1.30;99.90
31133;DHT22;17779;50.942;4.026;2023-02-28T02:46:52;1.20;99.90
31133;DHT22;17779;50.942;4.026;2023-02-28T02:49:21;1.10;99.90
31133;DHT22;17779;50.942;4.026;2023-02-28T02:51:49;1.10;99.90
31133;DHT22;17779;50.942;4.026;2023-02-28T02:54:20;1.20;99.90
31133;DHT22;17779;50.942;4.026;2023-02-28T02:56:48;1.20;99.90
31133;DHT22;17779;50.942;4.026;2023-02-28T02:59:21;1.20;99.90
31133;DHT22;17779;50.942;4.026;2023-02-28T03:01:52;1.20;99.90
31133;DHT22;17779;50.942;4.026;2023-02-28T03:04:20;1.20;99.90
31133;DHT22;17779;50.942;4.026;2023-02-28T03:06:47;1.20;99.90
31133;DHT22;17779;50.942;4.026;2023-02-28T03:09:12;1.30;99.90
31133;DHT22;17779;50.942;4.026;2023-02-28T03:11:39;1.20;99.90
31133;DHT22;17779;50.942;4.026;2023-02-28T03:24:27;1.10;99.90
31133;DHT22;17779;50.942;4.026;2023-02-28T03:26:58;1.20;99.90
31133;DHT22;17779;50.942;4.026;2023-02-28T03:32:16;1.10;99.90
31133;DHT22;17779;50.942;4.026;2023-02-28T03:34:42;1.10;99.90
31133;DHT22;17779;50.942;4.026;2023-02-28T03:37:12;1.10;99.90
31133;DHT22;17779;50.942;4.026;2023-02-28T03:39:40;1.00;99.90
31133;DHT22;17779;50.942;4.026;2023-02-28T03:42:11;1.00;99.90
31133;DHT22;17779;50.942;4.026;2023-02-28T03:44:39;1.00;99.90
31133;DHT22;17779;50.942;4.026;2023-02-28T03:47:08;1.00;99.90
31133;DHT22;17779;50.942;4.026;2023-02-28T03:49:46;0.80;99.90
31133;DHT22;17779;50.942;4.026;2023-02-28T03:52:13;0.80;99.90
31133;DHT22;17779;50.942;4.026;2023-02-28T03:54:44;0.90;99.90
31133;DHT22;17779;50.942;4.026;2023-02-28T03:59:47;1.10;99.90
31133;DHT22;17779;50.942;4.026;2023-02-28T04:02:14;0.90;99.90
31133;DHT22;17779;50.942;4.026;2023-02-28T04:04:40;0.90;99.90
31133;DHT22;17779;50.942;4.026;2023-02-28T04:07:10;0.90;99.90
31133;DHT22;17779;50.942;4.026;2023-02-28T04:09:36;0.80;99.90
31133;DHT22;17779;50.942;4.026;2023-02-28T04:12:03;0.60;99.90
31133;DHT22;17779;50.942;4.026;2023-02-28T04:14:28;0.50;99.90
31133;DHT22;17779;50.942;4.026;2023-02-28T04:16:54;0.60;99.90
31133;DHT22;17779;50.942;4.026;2023-02-28T04:19:20;0.70;99.90
31133;DHT22;17779;50.942;4.026;2023-02-28T04:21:47;0.80;99.90
31133;DHT22;17779;50.942;4.026;2023-02-28T04:24:13;0.60;99.90
31133;DHT22;17779;50.942;4.026;2023-02-28T04:26:41;0.40;99.90
31133;DHT22;17779;50.942;4.026;2023-02-28T04:29:09;0.50;99.90
31133;DHT22;17779;50.942;4.026;2023-02-28T04:31:35;0.70;99.90
31133;DHT22;17779;50.942;4.026;2023-02-28T04:34:01;0.50;99.90
31133;DHT22;17779;50.942;4.026;2023-02-28T04:36:27;0.40;99.90
31133;DHT22;17779;50.942;4.026;2023-02-28T04:38:53;0.40;99.90
31133;DHT22;17779;50.942;4.026;2023-02-28T04:41:19;0.50;99.90
31133;DHT22;17779;50.942;4.026;2023-02-28T04:43:45;0.40;99.90
31133;DHT22;17779;50.942;4.026;2023-02-28T04:46:10;0.50;99.90
31133;DHT22;17779;50.942;4.026;2023-02-28T04:48:38;0.50;99.90
31133;DHT22;17779;50.942;4.026;2023-02-28T04:51:06;0.40;99.90
31133;DHT22;17779;50.942;4.026;2023-02-28T04:53:32;0.50;99.90
31133;DHT22;17779;50.942;4.026;2023-02-28T04:55:57;0.80;99.90
31133;DHT22;17779;50.942;4.026;2023-02-28T04:58:23;1.00;99.90
31133;DHT22;17779;50.942;4.026;2023-02-28T05:00:50;1.00;99.90
31133;DHT22;17779;50.942;4.026;2023-02-28T05:03:15;1.20;99.90
31133;DHT22;17779;50.942;4.026;2023-02-28T05:05:41;1.40;99.90
31133;DHT22;17779;50.942;4.026;2023-02-28T05:08:07;1.40;99.90
31133;DHT22;17779;50.942;4.026;2023-02-28T05:10:33;1.50;99.90
31133;DHT22;17779;50.942;4.026;2023-02-28T05:12:58;1.70;99.90
31133;DHT22;17779;50.942;4.026;2023-02-28T05:15:24;1.80;99.90
31133;DHT22;17779;50.942;4.026;2023-02-28T05:17:50;1.80;99.90
31133;DHT22;17779;50.942;4.026;2023-02-28T05:20:16;1.90;99.90
31133;DHT22;17779;50.942;4.026;2023-02-28T05:22:42;2.00;99.90
31133;DHT22;17779;50.942;4.026;2023-02-28T05:25:10;1.90;99.90
31133;DHT22;17779;50.942;4.026;2023-02-28T05:27:38;2.20;99.90
31133;DHT22;17779;50.942;4.026;2023-02-28T05:30:04;2.20;99.90
31133;DHT22;17779;50.942;4.026;2023-02-28T05:32:31;2.00;99.90
31133;DHT22;17779;50.942;4.026;2023-02-28T05:34:57;2.00;99.90
31133;DHT22;17779;50.942;4.026;2023-02-28T05:37:23;2.10;99.90
31133;DHT22;17779;50.942;4.026;2023-02-28T05:39:48;2.10;99.90
31133;DHT22;17779;50.942;4.026;2023-02-28T05:42:15;1.90;99.90
31133;DHT22;17779;50.942;4.026;2023-02-28T05:44:41;2.00;99.90
31133;DHT22;17779;50.942;4.026;2023-02-28T05:47:07;2.10;99.90
31133;DHT22;17779;50.942;4.026;2023-02-28T05:49:33;2.00;99.90
31133;DHT22;17779;50.942;4.026;2023-02-28T05:51:59;1.90;99.90
31133;DHT22;17779;50.942;4.026;2023-02-28T05:54:25;1.70;99.90
31133;DHT22;17779;50.942;4.026;2023-02-28T05:56:51;1.90;99.90
31133;DHT22;17779;50.942;4.026;2023-02-28T05:59:17;2.00;99.90
31133;DHT22;17779;50.942;4.026;2023-02-28T06:01:43;2.00;99.90
31133;DHT22;17779;50.942;4.026;2023-02-28T06:04:16;2.10;99.90
31133;DHT22;17779;50.942;4.026;2023-02-28T06:06:44;2.20;99.90
31133;DHT22;17779;50.942;4.026;2023-02-28T06:09:10;2.20;99.90
31133;DHT22;17779;50.942;4.026;2023-02-28T06:11:36;2.30;99.90
31133;DHT22;17779;50.942;4.026;2023-02-28T06:14:02;2.30;99.90
31133;DHT22;17779;50.942;4.026;2023-02-28T06:16:32;2.30;99.90
31133;DHT22;17779;50.942;4.026;2023-02-28T06:18:59;2.40;99.90
31133;DHT22;17779;50.942;4.026;2023-02-28T06:21:25;2.50;99.90
31133;DHT22;17779;50.942;4.026;2023-02-28T06:23:52;2.40;99.90
31133;DHT22;17779;50.942;4.026;2023-02-28T06:26:19;2.40;99.90
31133;DHT22;17779;50.942;4.026;2023-02-28T06:28:45;2.40;99.90
31133;DHT22;17779;50.942;4.026;2023-02-28T06:31:12;2.30;99.90
31133;DHT22;17779;50.942;4.026;2023-02-28T06:33:39;2.50;99.90
31133;DHT22;17779;50.942;4.026;2023-02-28T06:36:05;2.60;99.90
31133;DHT22;17779;50.942;4.026;2023-02-28T06:38:33;2.70;99.90
31133;DHT22;17779;50.942;4.026;2023-02-28T06:40:59;2.70;99.90
31133;DHT22;17779;50.942;4.026;2023-02-28T06:43:25;2.80;99.90
31133;DHT22;17779;50.942;4.026;2023-02-28T06:45:56;2.70;99.90
31133;DHT22;17779;50.942;4.026;2023-02-28T06:48:22;2.60;99.90
31133;DHT22;17779;50.942;4.026;2023-02-28T06:50:48;2.80;99.90
31133;DHT22;17779;50.942;4.026;2023-02-28T06:53:14;2.70;99.90
31133;DHT22;17779;50.942;4.026;2023-02-28T06:55:40;2.60;99.90
31133;DHT22;17779;50.942;4.026;2023-02-28T06:58:06;2.60;99.90
31133;DHT22;17779;50.942;4.026;2023-02-28T07:00:50;2.70;99.90
31133;DHT22;17779;50.942;4.026;2023-02-28T07:03:16;2.80;99.90
31133;DHT22;17779;50.942;4.026;2023-02-28T07:05:43;3.00;99.90
31133;DHT22;17779;50.942;4.026;2023-02-28T07:08:09;3.10;99.90
31133;DHT22;17779;50.942;4.026;2023-02-28T07:10:36;3.00;99.90
31133;DHT22;17779;50.942;4.026;2023-02-28T07:13:03;2.90;99.90
31133;DHT22;17779;50.942;4.026;2023-02-28T07:15:29;3.10;99.90
31133;DHT22;17779;50.942;4.026;2023-02-28T07:17:55;3.10;99.90
31133;DHT22;17779;50.942;4.026;2023-02-28T07:20:22;3.50;99.90
31133;DHT22;17779;50.942;4.026;2023-02-28T07:22:48;3.40;99.90
31133;DHT22;17779;50.942;4.026;2023-02-28T07:25:21;3.50;99.90
31133;DHT22;17779;50.942;4.026;2023-02-28T07:27:46;3.60;99.90
31133;DHT22;17779;50.942;4.026;2023-02-28T07:30:13;3.50;99.90
31133;DHT22;17779;50.942;4.026;2023-02-28T07:32:39;3.60;99.90
31133;DHT22;17779;50.942;4.026;2023-02-28T07:35:04;4.00;99.90
31133;DHT22;17779;50.942;4.026;2023-02-28T07:37:30;4.50;99.90
31133;DHT22;17779;50.942;4.026;2023-02-28T07:40:05;4.80;99.90
31133;DHT22;17779;50.942;4.026;2023-02-28T07:42:34;5.00;99.90
31133;DHT22;17779;50.942;4.026;2023-02-28T07:45:00;4.60;99.90
31133;DHT22;17779;50.942;4.026;2023-02-28T07:47:26;4.50;99.90
31133;DHT22;17779;50.942;4.026;2023-02-28T07:49:54;4.70;99.90
31133;DHT22;17779;50.942;4.026;2023-02-28T07:52:19;4.80;99.90
31133;DHT22;17779;50.942;4.026;2023-02-28T07:54:45;4.80;99.90
31133;DHT22;17779;50.942;4.026;2023-02-28T07:57:11;4.30;99.90
31133;DHT22;17779;50.942;4.026;2023-02-28T07:59:37;4.60;99.90
31133;DHT22;17779;50.942;4.026;2023-02-28T08:02:05;5.00;99.90
31133;DHT22;17779;50.942;4.026;2023-02-28T08:04:34;5.60;99.90
31133;DHT22;17779;50.942;4.026;2023-02-28T08:07:00;5.40;99.90
31133;DHT22;17779;50.942;4.026;2023-02-28T08:09:26;5.10;99.90
31133;DHT22;17779;50.942;4.026;2023-02-28T08:11:52;4.70;99.90
31133;DHT22;17779;50.942;4.026;2023-02-28T08:14:17;5.00;99.90
31133;DHT22;17779;50.942;4.026;2023-02-28T08:16:43;4.80;99.90
31133;DHT22;17779;50.942;4.026;2023-02-28T08:19:09;4.60;99.90
31133;DHT22;17779;50.942;4.026;2023-02-28T08:21:35;4.40;99.90
31133;DHT22;17779;50.942;4.026;2023-02-28T08:24:00;4.40;99.90
31133;DHT22;17779;50.942;4.026;2023-02-28T08:26:26;4.40;99.90
31133;DHT22;17779;50.942;4.026;2023-02-28T08:28:52;4.60;99.90
31133;DHT22;17779;50.942;4.026;2023-02-28T08:31:18;4.40;99.90
31133;DHT22;17779;50.942;4.026;2023-02-28T08:33:44;4.30;99.90
31133;DHT22;17779;50.942;4.026;2023-02-28T08:36:10;4.40;99.90
31133;DHT22;17779;50.942;4.026;2023-02-28T08:38:36;4.40;99.90
31133;DHT22;17779;50.942;4.026;2023-02-28T08:41:04;4.40;99.90
31133;DHT22;17779;50.942;4.026;2023-02-28T08:43:33;4.30;99.90
31133;DHT22;17779;50.942;4.026;2023-02-28T08:45:58;4.30;99.90
31133;DHT22;17779;50.942;4.026;2023-02-28T08:48:28;4.20;99.90
31133;DHT22;17779;50.942;4.026;2023-02-28T08:50:58;4.00;99.90
31133;DHT22;17779;50.942;4.026;2023-02-28T08:53:24;4.10;99.90
31133;DHT22;17779;50.942;4.026;2023-02-28T08:56:02;4.10;99.90
31133;DHT22;17779;50.942;4.026;2023-02-28T08:58:29;4.50;99.90
31133;DHT22;17779;50.942;4.026;2023-02-28T09:00:55;4.60;99.90
31133;DHT22;17779;50.942;4.026;2023-02-28T09:03:21;4.80;99.90
31133;DHT22;17779;50.942;4.026;2023-02-28T09:05:57;5.00;99.90
31133;DHT22;17779;50.942;4.026;2023-02-28T09:08:23;5.00;99.90
31133;DHT22;17779;50.942;4.026;2023-02-28T09:10:49;4.90;99.90
31133;DHT22;17779;50.942;4.026;2023-02-28T09:13:15;4.90;99.90
31133;DHT22;17779;50.942;4.026;2023-02-28T09:15:41;5.10;99.90
31133;DHT22;17779;50.942;4.026;2023-02-28T09:18:07;5.30;99.90
31133;DHT22;17779;50.942;4.026;2023-02-28T09:20:32;5.30;99.90
31133;DHT22;17779;50.942;4.026;2023-02-28T09:22:58;5.60;99.90
31133;DHT22;17779;50.942;4.026;2023-02-28T09:25:24;6.00;99.90
31133;DHT22;17779;50.942;4.026;2023-02-28T09:27:50;5.50;99.90
31133;DHT22;17779;50.942;4.026;2023-02-28T09:30:15;5.30;99.90
31133;DHT22;17779;50.942;4.026;2023-02-28T09:32:41;5.30;99.90
31133;DHT22;17779;50.942;4.026;2023-02-28T09:35:07;5.40;99.90
31133;DHT22;17779;50.942;4.026;2023-02-28T09:37:38;5.70;99.90
31133;DHT22;17779;50.942;4.026;2023-02-28T09:40:04;5.20;99.90
31133;DHT22;17779;50.942;4.026;2023-02-28T09:42:31;5.00;99.90
31133;DHT22;17779;50.942;4.026;2023-02-28T09:44:58;5.20;99.90
31133;DHT22;17779;50.942;4.026;2023-02-28T09:47:42;6.20;99.90
31133;DHT22;17779;50.942;4.026;2023-02-28T09:50:17;7.30;99.90
31133;DHT22;17779;50.942;4.026;2023-02-28T09:52:46;9.30;99.90
31133;DHT22;17779;50.942;4.026;2023-02-28T09:57:49;10.50;95.20
31133;DHT22;17779;50.942;4.026;2023-02-28T10:00:23;9.40;95.50
31133;DHT22;17779;50.942;4.026;2023-02-28T10:05:16;11.70;92.50
31133;DHT22;17779;50.942;4.026;2023-02-28T10:08:02;11.30;91.60
31133;DHT22;17779;50.942;4.026;2023-02-28T10:10:40;11.30;90.30
31133;DHT22;17779;50.942;4.026;2023-02-28T10:13:12;10.00;92.50
31133;DHT22;17779;50.942;4.026;2023-02-28T10:15:39;10.80;91.50
31133;DHT22;17779;50.942;4.026;2023-02-28T10:18:06;11.60;88.70
31133;DHT22;17779;50.942;4.026;2023-02-28T10:20:39;10.60;85.80
31133;DHT22;17779;50.942;4.026;2023-02-28T10:23:23;10.30;88.20
31133;DHT22;17779;50.942;4.026;2023-02-28T10:25:58;11.30;85.60
31133;DHT22;17779;50.942;4.026;2023-02-28T10:28:24;11.20;84.60
31133;DHT22;17779;50.942;4.026;2023-02-28T10:30:51;11.70;83.50
31133;DHT22;17779;50.942;4.026;2023-02-28T10:33:22;11.90;79.80
31133;DHT22;17779;50.942;4.026;2023-02-28T10:35:48;12.30;77.70
31133;DHT22;17779;50.942;4.026;2023-02-28T10:38:16;11.20;79.50
31133;DHT22;17779;50.942;4.026;2023-02-28T10:40:43;11.10;80.20
31133;DHT22;17779;50.942;4.026;2023-02-28T10:46:02;12.80;78.20
31133;DHT22;17779;50.942;4.026;2023-02-28T10:48:36;14.00;75.20
31133;DHT22;17779;50.942;4.026;2023-02-28T10:51:02;13.00;73.50
31133;DHT22;17779;50.942;4.026;2023-02-28T10:56:02;14.00;71.90
31133;DHT22;17779;50.942;4.026;2023-02-28T11:01:15;12.10;72.50
31133;DHT22;17779;50.942;4.026;2023-02-28T11:03:50;11.30;74.40
31133;DHT22;17779;50.942;4.026;2023-02-28T11:06:19;10.30;75.30
31133;DHT22;17779;50.942;4.026;2023-02-28T11:08:49;11.20;75.90
31133;DHT22;17779;50.942;4.026;2023-02-28T11:11:16;12.70;73.70
31133;DHT22;17779;50.942;4.026;2023-02-28T11:13:42;13.00;70.60
31133;DHT22;17779;50.942;4.026;2023-02-28T11:16:09;12.90;71.00
31133;DHT22;17779;50.942;4.026;2023-02-28T11:21:02;12.30;68.50
31133;DHT22;17779;50.942;4.026;2023-02-28T11:23:29;11.70;69.40
31133;DHT22;17779;50.942;4.026;2023-02-28T11:26:00;12.10;69.80
31133;DHT22;17779;50.942;4.026;2023-02-28T11:28:28;13.80;69.50
31133;DHT22;17779;50.942;4.026;2023-02-28T11:33:37;13.40;64.10
31133;DHT22;17779;50.942;4.026;2023-02-28T11:36:10;12.90;65.20
31133;DHT22;17779;50.942;4.026;2023-02-28T11:38:37;12.80;65.90
31133;DHT22;17779;50.942;4.026;2023-02-28T11:43:54;12.80;64.40
31133;DHT22;17779;50.942;4.026;2023-02-28T11:46:35;12.10;63.60
31133;DHT22;17779;50.942;4.026;2023-02-28T11:49:20;11.10;65.50
31133;DHT22;17779;50.942;4.026;2023-02-28T11:51:55;10.80;67.40
31133;DHT22;17779;50.942;4.026;2023-02-28T11:54:33;10.50;67.90
31133;DHT22;17779;50.942;4.026;2023-02-28T11:57:16;9.90;68.30
31133;DHT22;17779;50.942;4.026;2023-02-28T11:59:56;9.60;67.90
31133;DHT22;17779;50.942;4.026;2023-02-28T12:02:31;8.30;69.80
31133;DHT22;17779;50.942;4.026;2023-02-28T12:07:42;8.80;69.70
31133;DHT22;17779;50.942;4.026;2023-02-28T12:10:25;9.20;71.30
31133;DHT22;17779;50.942;4.026;2023-02-28T12:17:49;11.30;67.10
31133;DHT22;17779;50.942;4.026;2023-02-28T12:20:26;12.30;64.50
31133;DHT22;17779;50.942;4.026;2023-02-28T12:22:57;12.00;65.20
31133;DHT22;17779;50.942;4.026;2023-02-28T12:27:56;13.20;61.90
31133;DHT22;17779;50.942;4.026;2023-02-28T12:30:24;12.00;64.20
31133;DHT22;17779;50.942;4.026;2023-02-28T12:33:00;13.30;61.60
31133;DHT22;17779;50.942;4.026;2023-02-28T12:35:31;14.10;59.50
31133;DHT22;17779;50.942;4.026;2023-02-28T12:37:59;13.00;60.30
31133;DHT22;17779;50.942;4.026;2023-02-28T12:40:29;12.90;62.70
31133;DHT22;17779;50.942;4.026;2023-02-28T12:42:58;13.80;60.80
31133;DHT22;17779;50.942;4.026;2023-02-28T12:45:26;16.00;58.60
31133;DHT22;17779;50.942;4.026;2023-02-28T12:47:56;16.10;57.00
31133;DHT22;17779;50.942;4.026;2023-02-28T12:50:22;16.10;56.20
31133;DHT22;17779;50.942;4.026;2023-02-28T12:52:51;14.80;57.40
31133;DHT22;17779;50.942;4.026;2023-02-28T13:00:20;14.50;57.50
31133;DHT22;17779;50.942;4.026;2023-02-28T13:05:31;14.00;58.40
31133;DHT22;17779;50.942;4.026;2023-02-28T13:08:12;14.50;57.20
31133;DHT22;17779;50.942;4.026;2023-02-28T13:10:46;14.60;56.90
31133;DHT22;17779;50.942;4.026;2023-02-28T13:13:19;13.80;58.40
31133;DHT22;17779;50.942;4.026;2023-02-28T13:18:27;14.30;57.80
31133;DHT22;17779;50.942;4.026;2023-02-28T13:20:54;15.00;56.20
31133;DHT22;17779;50.942;4.026;2023-02-28T13:24:04;13.90;56.00
31133;DHT22;17779;50.942;4.026;2023-02-28T13:26:05;14.50;57.20
31133;DHT22;17779;50.942;4.026;2023-02-28T13:31:15;13.20;57.80
31133;DHT22;17779;50.942;4.026;2023-02-28T13:38:41;11.90;60.20
31133;DHT22;17779;50.942;4.026;2023-02-28T13:46:27;11.00;61.00
31133;DHT22;17779;50.942;4.026;2023-02-28T13:48:53;11.90;60.30
31133;DHT22;17779;50.942;4.026;2023-02-28T13:54:09;13.30;60.20
31133;DHT22;17779;50.942;4.026;2023-02-28T13:56:44;13.90;58.10
31133;DHT22;17779;50.942;4.026;2023-02-28T14:01:53;9.00;63.30
31133;DHT22;17779;50.942;4.026;2023-02-28T14:06:54;7.70;68.20
31133;DHT22;17779;50.942;4.026;2023-02-28T14:09:28;7.60;68.60
31133;DHT22;17779;50.942;4.026;2023-02-28T14:11:54;7.00;68.90
31133;DHT22;17779;50.942;4.026;2023-02-28T14:17:01;7.10;70.40
31133;DHT22;17779;50.942;4.026;2023-02-28T14:19:28;7.20;70.60
31133;DHT22;17779;50.942;4.026;2023-02-28T14:34:43;6.50;73.40
31133;DHT22;17779;50.942;4.026;2023-02-28T14:37:14;6.50;73.20
31133;DHT22;17779;50.942;4.026;2023-02-28T14:39:42;6.60;74.20
31133;DHT22;17779;50.942;4.026;2023-02-28T14:42:28;6.90;74.10
31133;DHT22;17779;50.942;4.026;2023-02-28T14:44:54;6.70;73.40
31133;DHT22;17779;50.942;4.026;2023-02-28T14:47:23;6.60;73.70
31133;DHT22;17779;50.942;4.026;2023-02-28T14:49:51;6.60;73.90
31133;DHT22;17779;50.942;4.026;2023-02-28T14:52:20;6.60;73.80
31133;DHT22;17779;50.942;4.026;2023-02-28T14:54:57;6.60;73.90
31133;DHT22;17779;50.942;4.026;2023-02-28T14:57:27;6.50;74.30
31133;DHT22;17779;50.942;4.026;2023-02-28T15:00:05;6.70;75.30
31133;DHT22;17779;50.942;4.026;2023-02-28T15:02:36;6.70;74.70
31133;DHT22;17779;50.942;4.026;2023-02-28T15:07:38;6.80;74.20
31133;DHT22;17779;50.942;4.026;2023-02-28T15:10:20;6.70;75.00
31133;DHT22;17779;50.942;4.026;2023-02-28T15:12:51;6.60;75.50
31133;DHT22;17779;50.942;4.026;2023-02-28T15:15:18;6.40;76.50
31133;DHT22;17779;50.942;4.026;2023-02-28T15:17:49;6.50;76.80
31133;DHT22;17779;50.942;4.026;2023-02-28T15:20:25;6.50;76.60
31133;DHT22;17779;50.942;4.026;2023-02-28T15:22:52;6.30;76.90
31133;DHT22;17779;50.942;4.026;2023-02-28T15:25:21;6.40;77.20
31133;DHT22;17779;50.942;4.026;2023-02-28T15:27:54;6.40;77.20
31133;DHT22;17779;50.942;4.026;2023-02-28T15:30:30;6.40;78.20
31133;DHT22;17779;50.942;4.026;2023-02-28T15:33:17;6.40;77.70
31133;DHT22;17779;50.942;4.026;2023-02-28T15:35:43;6.40;77.40
31133;DHT22;17779;50.942;4.026;2023-02-28T15:40:55;6.30;80.00
31133;DHT22;17779;50.942;4.026;2023-02-28T15:43:28;6.40;79.90
31133;DHT22;17779;50.942;4.026;2023-02-28T15:45:58;6.50;80.40
31133;DHT22;17779;50.942;4.026;2023-02-28T15:53:50;6.50;79.40
31133;DHT22;17779;50.942;4.026;2023-02-28T15:56:22;6.30;79.40
31133;DHT22;17779;50.942;4.026;2023-02-28T15:58:48;6.20;80.30
31133;DHT22;17779;50.942;4.026;2023-02-28T16:01:23;6.20;80.60
31133;DHT22;17779;50.942;4.026;2023-02-28T16:03:51;6.10;81.30
31133;DHT22;17779;50.942;4.026;2023-02-28T16:08:47;6.10;81.40
31133;DHT22;17779;50.942;4.026;2023-02-28T16:11:16;6.00;81.50
31133;DHT22;17779;50.942;4.026;2023-02-28T16:13:42;6.10;81.90
31133;DHT22;17779;50.942;4.026;2023-02-28T16:16:08;6.10;81.80
31133;DHT22;17779;50.942;4.026;2023-02-28T16:18:40;6.00;81.80
31133;DHT22;17779;50.942;4.026;2023-02-28T16:21:05;6.00;81.90
31133;DHT22;17779;50.942;4.026;2023-02-28T16:23:31;5.90;82.70
31133;DHT22;17779;50.942;4.026;2023-02-28T16:25:57;5.90;82.70
31133;DHT22;17779;50.942;4.026;2023-02-28T16:28:24;5.80;84.10
31133;DHT22;17779;50.942;4.026;2023-02-28T16:30:51;5.90;83.50
31133;DHT22;17779;50.942;4.026;2023-02-28T16:33:17;5.90;83.70
31133;DHT22;17779;50.942;4.026;2023-02-28T16:35:43;6.00;83.80
31133;DHT22;17779;50.942;4.026;2023-02-28T16:38:08;6.00;84.60
31133;DHT22;17779;50.942;4.026;2023-02-28T16:40:35;5.90;84.80
31133;DHT22;17779;50.942;4.026;2023-02-28T16:43:03;6.00;85.30
31133;DHT22;17779;50.942;4.026;2023-02-28T16:45:30;5.90;85.90
31133;DHT22;17779;50.942;4.026;2023-02-28T16:47:56;5.60;87.30
31133;DHT22;17779;50.942;4.026;2023-02-28T16:50:23;5.60;86.90
31133;DHT22;17779;50.942;4.026;2023-02-28T16:52:49;5.60;86.80
31133;DHT22;17779;50.942;4.026;2023-02-28T16:55:17;5.50;87.00
31133;DHT22;17779;50.942;4.026;2023-02-28T16:57:50;5.50;86.80
31133;DHT22;17779;50.942;4.026;2023-02-28T17:00:16;5.40;87.70
31133;DHT22;17779;50.942;4.026;2023-02-28T17:02:42;5.40;88.00
31133;DHT22;17779;50.942;4.026;2023-02-28T17:05:08;5.50;88.00
31133;DHT22;17779;50.942;4.026;2023-02-28T17:07:34;5.40;89.70
31133;DHT22;17779;50.942;4.026;2023-02-28T17:10:00;5.40;89.20
31133;DHT22;17779;50.942;4.026;2023-02-28T17:12:33;5.20;89.20
31133;DHT22;17779;50.942;4.026;2023-02-28T17:14:59;5.20;89.80
31133;DHT22;17779;50.942;4.026;2023-02-28T17:17:25;5.10;90.10
31133;DHT22;17779;50.942;4.026;2023-02-28T17:19:51;5.20;90.30
31133;DHT22;17779;50.942;4.026;2023-02-28T17:22:16;5.10;90.40
31133;DHT22;17779;50.942;4.026;2023-02-28T17:24:42;5.10;90.60
31133;DHT22;17779;50.942;4.026;2023-02-28T17:27:11;5.10;90.80
31133;DHT22;17779;50.942;4.026;2023-02-28T17:29:38;5.10;91.00
31133;DHT22;17779;50.942;4.026;2023-02-28T17:32:04;5.10;91.20
31133;DHT22;17779;50.942;4.026;2023-02-28T17:34:30;5.10;91.50
31133;DHT22;17779;50.942;4.026;2023-02-28T17:36:56;5.00;91.50
31133;DHT22;17779;50.942;4.026;2023-02-28T17:39:22;4.90;91.90
31133;DHT22;17779;50.942;4.026;2023-02-28T17:41:51;4.80;92.20
31133;DHT22;17779;50.942;4.026;2023-02-28T17:44:18;4.90;92.40
31133;DHT22;17779;50.942;4.026;2023-02-28T17:46:44;4.90;92.40
31133;DHT22;17779;50.942;4.026;2023-02-28T17:49:10;5.00;92.40
31133;DHT22;17779;50.942;4.026;2023-02-28T17:51:36;4.90;92.50
31133;DHT22;17779;50.942;4.026;2023-02-28T17:54:02;4.80;92.70